ARG1009 SACO-SAZS
Flight info
| Callsign | ARG1009 |
|---|---|
| Flight time | 0h 59m |
| Altitude | 40000 |
| Route | ALDEX1C ALDEX UT685 MOCHO UW44 CHATO CHATO2Q |
| Aircraft | B772/H-SDE2E3FGHIJ5LORVWXY/LB1D1 |
Departure
| Time | 2026-04-24 15:50 |
|---|---|
| Airport | Ingeniero Aeronáutico Ambrosio L.V. Taravella International Airport (SACO) |
Arrival
| Time | 2026-04-24 16:49 |
|---|---|
| Airport | Teniente Luis Candelaria International Airport (SAZS) |
| Time | Latitude | Longitude | Altitude | Speed | Heading |
|---|---|---|---|---|---|
| 2026-04-24 15:35 | -31.31486 | -64.21171 | 1617 ft | 0 kts | 262° |
| 2026-04-24 15:43 | -31.31485 | -64.21171 | 1617 ft | 3 kts | 264° |
| 2026-04-24 15:44 | -31.31481 | -64.21141 | 1619 ft | 3 kts | 259° |
| 2026-04-24 15:44 | -31.31478 | -64.21126 | 1621 ft | 3 kts | 255° |
| 2026-04-24 15:44 | -31.31472 | -64.21103 | 1626 ft | 3 kts | 243° |
| 2026-04-24 15:44 | -31.31462 | -64.21086 | 1623 ft | 3 kts | 212° |
| 2026-04-24 15:45 | -31.31448 | -64.21080 | 1624 ft | 1 kts | 181° |
| 2026-04-24 15:45 | -31.31445 | -64.21080 | 1623 ft | 0 kts | 181° |
| 2026-04-24 15:47 | -31.31472 | -64.21080 | 1626 ft | 9 kts | 180° |
| 2026-04-24 15:47 | -31.31563 | -64.21094 | 1625 ft | 15 kts | 194° |
| 2026-04-24 15:47 | -31.31667 | -64.21102 | 1622 ft | 15 kts | 179° |
| 2026-04-24 15:47 | -31.31760 | -64.21057 | 1626 ft | 15 kts | 142° |
| 2026-04-24 15:48 | -31.31875 | -64.21028 | 1622 ft | 20 kts | 179° |
| 2026-04-24 15:48 | -31.32021 | -64.21026 | 1620 ft | 21 kts | 179° |
| 2026-04-24 15:48 | -31.32168 | -64.21024 | 1621 ft | 21 kts | 181° |
| 2026-04-24 15:48 | -31.32315 | -64.21019 | 1625 ft | 21 kts | 177° |
| 2026-04-24 15:49 | -31.32413 | -64.20987 | 1621 ft | 10 kts | 138° |
| 2026-04-24 15:49 | -31.32437 | -64.20916 | 1624 ft | 10 kts | 89° |
| 2026-04-24 15:49 | -31.32420 | -64.20840 | 1624 ft | 10 kts | 65° |
| 2026-04-24 15:49 | -31.32360 | -64.20814 | 1623 ft | 12 kts | 359° |
| 2026-04-24 15:50 | -31.32048 | -64.20818 | 1625 ft | 91 kts | 1° |
| 2026-04-24 15:50 | -31.31102 | -64.20835 | 1797 ft | 163 kts | 2° |
| 2026-04-24 15:50 | -31.29942 | -64.20821 | 2897 ft | 177 kts | 1° |
| 2026-04-24 15:50 | -31.28573 | -64.20844 | 3501 ft | 218 kts | 358° |
| 2026-04-24 15:51 | -31.26968 | -64.20874 | 4039 ft | 239 kts | 358° |
| 2026-04-24 15:51 | -31.25229 | -64.20905 | 4732 ft | 257 kts | 358° |
| 2026-04-24 15:51 | -31.23415 | -64.20930 | 5637 ft | 264 kts | 358° |
| 2026-04-24 15:51 | -31.21565 | -64.20946 | 6614 ft | 269 kts | 358° |
| 2026-04-24 15:52 | -31.19714 | -64.21102 | 7416 ft | 269 kts | 342° |
| 2026-04-24 15:52 | -31.18127 | -64.22247 | 8196 ft | 270 kts | 317° |
| 2026-04-24 15:52 | -31.16692 | -64.23721 | 8932 ft | 279 kts | 319° |
| 2026-04-24 15:52 | -31.15169 | -64.25143 | 9901 ft | 282 kts | 320° |
| 2026-04-24 15:53 | -31.13604 | -64.26573 | 10565 ft | 291 kts | 317° |
| 2026-04-24 15:53 | -31.12314 | -64.28473 | 10738 ft | 314 kts | 292° |
| 2026-04-24 15:53 | -31.11886 | -64.31042 | 11149 ft | 330 kts | 271° |
| 2026-04-24 15:53 | -31.11906 | -64.33776 | 11822 ft | 342 kts | 270° |
| 2026-04-24 15:54 | -31.11921 | -64.36569 | 12849 ft | 344 kts | 270° |
| 2026-04-24 15:54 | -31.11925 | -64.39350 | 14000 ft | 344 kts | 270° |
| 2026-04-24 15:54 | -31.11925 | -64.42163 | 14840 ft | 349 kts | 270° |
| 2026-04-24 15:54 | -31.11933 | -64.45018 | 15667 ft | 354 kts | 270° |
| 2026-04-24 15:55 | -31.11923 | -64.47908 | 16575 ft | 358 kts | 270° |
| 2026-04-24 15:55 | -31.11911 | -64.50824 | 17533 ft | 361 kts | 270° |
| 2026-04-24 15:55 | -31.12082 | -64.53745 | 18391 ft | 363 kts | 261° |
| 2026-04-24 15:55 | -31.12642 | -64.56638 | 19107 ft | 368 kts | 256° |
| 2026-04-24 15:56 | -31.13325 | -64.59523 | 19909 ft | 370 kts | 255° |
| 2026-04-24 15:56 | -31.14004 | -64.62423 | 20744 ft | 371 kts | 256° |
| 2026-04-24 15:56 | -31.14643 | -64.65343 | 21517 ft | 373 kts | 257° |
| 2026-04-24 15:56 | -31.15260 | -64.68298 | 22297 ft | 376 kts | 257° |
| 2026-04-24 15:57 | -31.15871 | -64.71275 | 23086 ft | 378 kts | 257° |
| 2026-04-24 15:57 | -31.16484 | -64.74269 | 23868 ft | 381 kts | 258° |
| 2026-04-24 15:57 | -31.17102 | -64.77290 | 24511 ft | 384 kts | 258° |
| 2026-04-24 15:57 | -31.17715 | -64.80283 | 25222 ft | 385 kts | 258° |
| 2026-04-24 15:58 | -31.18347 | -64.83361 | 25941 ft | 385 kts | 258° |
| 2026-04-24 15:58 | -31.18971 | -64.86413 | 26623 ft | 387 kts | 258° |
| 2026-04-24 15:58 | -31.19854 | -64.89374 | 27059 ft | 394 kts | 244° |
| 2026-04-24 15:58 | -31.21492 | -64.91996 | 27573 ft | 406 kts | 232° |
| 2026-04-24 15:59 | -31.23608 | -64.94180 | 28118 ft | 419 kts | 220° |
| 2026-04-24 15:59 | -31.26178 | -64.95858 | 28656 ft | 427 kts | 214° |
| 2026-04-24 15:59 | -31.28852 | -64.97419 | 29130 ft | 432 kts | 213° |
| 2026-04-24 15:59 | -31.31564 | -64.98974 | 29653 ft | 435 kts | 213° |
| 2026-04-24 16:00 | -31.34286 | -65.00546 | 30172 ft | 437 kts | 213° |
| 2026-04-24 16:00 | -31.37013 | -65.02144 | 30588 ft | 439 kts | 214° |
| 2026-04-24 16:00 | -31.39743 | -65.03765 | 31019 ft | 441 kts | 215° |
| 2026-04-24 16:00 | -31.42475 | -65.05402 | 31440 ft | 442 kts | 216° |
| 2026-04-24 16:01 | -31.45208 | -65.07048 | 31856 ft | 443 kts | 216° |
| 2026-04-24 16:01 | -31.47961 | -65.08702 | 32169 ft | 445 kts | 217° |
| 2026-04-24 16:01 | -31.50718 | -65.10381 | 32406 ft | 449 kts | 217° |
| 2026-04-24 16:01 | -31.53495 | -65.12061 | 32747 ft | 449 kts | 217° |
| 2026-04-24 16:02 | -31.56272 | -65.13738 | 33132 ft | 449 kts | 217° |
| 2026-04-24 16:02 | -31.59047 | -65.15412 | 33518 ft | 448 kts | 217° |
| 2026-04-24 16:02 | -31.61811 | -65.17081 | 33977 ft | 445 kts | 218° |
| 2026-04-24 16:02 | -31.64557 | -65.18742 | 34391 ft | 443 kts | 218° |
| 2026-04-24 16:03 | -31.67272 | -65.20421 | 34789 ft | 437 kts | 220° |
| 2026-04-24 16:03 | -31.69893 | -65.22189 | 35205 ft | 433 kts | 221° |
| 2026-04-24 16:03 | -31.72479 | -65.24014 | 35420 ft | 435 kts | 221° |
| 2026-04-24 16:03 | -31.75063 | -65.25858 | 35689 ft | 435 kts | 222° |
| 2026-04-24 16:04 | -31.77651 | -65.27696 | 36048 ft | 434 kts | 222° |
| 2026-04-24 16:04 | -31.80230 | -65.29513 | 36469 ft | 431 kts | 222° |
| 2026-04-24 16:04 | -31.82797 | -65.31312 | 36823 ft | 430 kts | 222° |
| 2026-04-24 16:04 | -31.85365 | -65.33109 | 37105 ft | 430 kts | 222° |
| 2026-04-24 16:05 | -31.90495 | -65.36694 | 37705 ft | 428 kts | 222° |
| 2026-04-24 16:05 | -31.93052 | -65.38482 | 38027 ft | 426 kts | 223° |
| 2026-04-24 16:06 | -31.98138 | -65.42045 | 38627 ft | 424 kts | 223° |
| 2026-04-24 16:06 | -32.00664 | -65.43856 | 38704 ft | 426 kts | 223° |
| 2026-04-24 16:06 | -32.05902 | -65.47351 | 38920 ft | 441 kts | 217° |
| 2026-04-24 16:07 | -32.08679 | -65.48881 | 39116 ft | 441 kts | 217° |
| 2026-04-24 16:07 | -32.11444 | -65.50423 | 39326 ft | 440 kts | 217° |
| 2026-04-24 16:07 | -32.16969 | -65.53544 | 39669 ft | 440 kts | 217° |
| 2026-04-24 16:08 | -32.19725 | -65.55108 | 39840 ft | 440 kts | 217° |
| 2026-04-24 16:08 | -32.25254 | -65.58250 | 40028 ft | 442 kts | 217° |
| 2026-04-24 16:09 | -32.33586 | -65.62984 | 40123 ft | 444 kts | 216° |
| 2026-04-24 16:09 | -32.39157 | -65.66153 | 40112 ft | 444 kts | 216° |
| 2026-04-24 16:11 | -32.53070 | -65.74095 | 40117 ft | 444 kts | 216° |
| 2026-04-24 16:11 | -32.58634 | -65.77279 | 40117 ft | 445 kts | 216° |
| 2026-04-24 16:12 | -32.66957 | -65.82046 | 40104 ft | 445 kts | 216° |
| 2026-04-24 16:13 | -32.75311 | -65.86841 | 40094 ft | 444 kts | 216° |
| 2026-04-24 16:14 | -32.85950 | -65.93950 | 40104 ft | 436 kts | 221° |
| 2026-04-24 16:14 | -32.93635 | -65.99777 | 40092 ft | 437 kts | 221° |
| 2026-04-24 16:15 | -38.32200 | -70.35086 | 40615 ft | 433 kts | 205° |
| 2026-04-24 16:16 | -38.37411 | -70.38440 | 40302 ft | 421 kts | 210° |
| 2026-04-24 16:16 | -38.40338 | -70.39298 | 40255 ft | 446 kts | 193° |
| 2026-04-24 16:17 | -38.49783 | -70.40491 | 40159 ft | 457 kts | 198° |
| 2026-04-24 16:17 | -38.56045 | -70.42107 | 40153 ft | 461 kts | 200° |
| 2026-04-24 16:18 | -38.68580 | -70.45792 | 40152 ft | 462 kts | 201° |
| 2026-04-24 16:19 | -38.77982 | -70.48511 | 40168 ft | 461 kts | 201° |
| 2026-04-24 16:20 | -38.87357 | -70.51210 | 40164 ft | 459 kts | 200° |
| 2026-04-24 16:20 | -38.96683 | -70.53903 | 40155 ft | 456 kts | 200° |
| 2026-04-24 16:21 | -39.05951 | -70.56589 | 40173 ft | 455 kts | 200° |
| 2026-04-24 16:22 | -39.12125 | -70.58384 | 40149 ft | 455 kts | 200° |
| 2026-04-24 16:22 | -39.21684 | -70.59898 | 40142 ft | 466 kts | 192° |
| 2026-04-24 16:23 | -39.27065 | -70.60385 | 40149 ft | 466 kts | 192° |
| 2026-04-24 16:24 | -39.37727 | -70.61400 | 39241 ft | 456 kts | 192° |
| 2026-04-24 16:24 | -39.40889 | -70.61721 | 38560 ft | 456 kts | 192° |
| 2026-04-24 16:24 | -39.44063 | -70.62045 | 37799 ft | 457 kts | 192° |
| 2026-04-24 16:24 | -39.47223 | -70.62369 | 37150 ft | 455 kts | 191° |
| 2026-04-24 16:25 | -39.50364 | -70.62687 | 36676 ft | 450 kts | 191° |
| 2026-04-24 16:25 | -39.52428 | -70.62896 | 36347 ft | 448 kts | 191° |
| 2026-04-24 16:25 | -39.56558 | -70.63312 | 35706 ft | 442 kts | 191° |
| 2026-04-24 16:26 | -39.62644 | -70.63928 | 34772 ft | 435 kts | 190° |
| 2026-04-24 16:26 | -39.64638 | -70.64131 | 34466 ft | 433 kts | 190° |
| 2026-04-24 16:26 | -39.70609 | -70.64740 | 33483 ft | 428 kts | 190° |
| 2026-04-24 16:27 | -39.74563 | -70.65143 | 32817 ft | 424 kts | 190° |
| 2026-04-24 16:27 | -39.76504 | -70.65341 | 32492 ft | 422 kts | 190° |
| 2026-04-24 16:27 | -39.79425 | -70.65639 | 32026 ft | 419 kts | 190° |
| 2026-04-24 16:27 | -39.82318 | -70.65934 | 31569 ft | 416 kts | 190° |
| 2026-04-24 16:28 | -39.85192 | -70.66228 | 31112 ft | 413 kts | 190° |
| 2026-04-24 16:28 | -39.88051 | -70.66521 | 30657 ft | 411 kts | 190° |
| 2026-04-24 16:28 | -39.93727 | -70.67104 | 29678 ft | 407 kts | 190° |
| 2026-04-24 16:29 | -39.96544 | -70.67393 | 29144 ft | 404 kts | 189° |
| 2026-04-24 16:29 | -39.99334 | -70.67678 | 28644 ft | 400 kts | 189° |
| 2026-04-24 16:29 | -40.04844 | -70.68244 | 27627 ft | 394 kts | 189° |
| 2026-04-24 16:30 | -40.10267 | -70.68803 | 26649 ft | 389 kts | 189° |
| 2026-04-24 16:30 | -40.12963 | -70.69082 | 26175 ft | 387 kts | 189° |
| 2026-04-24 16:30 | -40.15636 | -70.69358 | 25716 ft | 385 kts | 190° |
| 2026-04-24 16:31 | -40.18296 | -70.69632 | 25238 ft | 383 kts | 190° |
| 2026-04-24 16:31 | -40.20942 | -70.69905 | 24782 ft | 381 kts | 190° |
| 2026-04-24 16:31 | -40.23576 | -70.70178 | 24304 ft | 379 kts | 190° |
| 2026-04-24 16:31 | -40.26190 | -70.70449 | 23841 ft | 377 kts | 190° |
| 2026-04-24 16:32 | -40.28805 | -70.70720 | 23321 ft | 375 kts | 190° |
| 2026-04-24 16:32 | -40.31396 | -70.70989 | 22824 ft | 373 kts | 190° |
| 2026-04-24 16:32 | -40.33942 | -70.71252 | 22365 ft | 370 kts | 190° |
| 2026-04-24 16:32 | -40.36493 | -70.71515 | 21912 ft | 367 kts | 190° |
| 2026-04-24 16:33 | -40.39069 | -70.71782 | 21460 ft | 364 kts | 190° |
| 2026-04-24 16:33 | -40.41554 | -70.72041 | 21028 ft | 362 kts | 190° |
| 2026-04-24 16:33 | -40.44052 | -70.72301 | 20597 ft | 359 kts | 190° |
| 2026-04-24 16:33 | -40.46538 | -70.72560 | 20173 ft | 357 kts | 190° |
| 2026-04-24 16:34 | -40.49006 | -70.72817 | 19751 ft | 355 kts | 190° |
| 2026-04-24 16:34 | -40.51458 | -70.73073 | 19335 ft | 353 kts | 190° |
| 2026-04-24 16:34 | -40.53906 | -70.73329 | 18901 ft | 352 kts | 190° |
| 2026-04-24 16:34 | -40.56341 | -70.73584 | 18504 ft | 350 kts | 191° |
| 2026-04-24 16:35 | -40.58764 | -70.73838 | 18024 ft | 350 kts | 191° |
| 2026-04-24 16:35 | -40.61185 | -70.74092 | 17540 ft | 348 kts | 191° |
| 2026-04-24 16:35 | -40.63593 | -70.74343 | 17086 ft | 346 kts | 191° |
| 2026-04-24 16:35 | -40.65982 | -70.74593 | 16650 ft | 343 kts | 191° |
| 2026-04-24 16:36 | -40.68354 | -70.74841 | 16212 ft | 341 kts | 191° |
| 2026-04-24 16:36 | -40.70710 | -70.75088 | 15778 ft | 339 kts | 191° |
| 2026-04-24 16:36 | -40.73052 | -70.75333 | 15331 ft | 337 kts | 191° |
| 2026-04-24 16:36 | -40.75385 | -70.75579 | 14901 ft | 335 kts | 190° |
| 2026-04-24 16:37 | -40.77702 | -70.75824 | 14486 ft | 334 kts | 190° |
| 2026-04-24 16:37 | -40.80013 | -70.76067 | 14025 ft | 333 kts | 190° |
| 2026-04-24 16:37 | -40.82314 | -70.76309 | 13546 ft | 331 kts | 190° |
| 2026-04-24 16:37 | -40.84603 | -70.76549 | 13072 ft | 328 kts | 191° |
| 2026-04-24 16:38 | -40.86867 | -70.76788 | 12615 ft | 325 kts | 191° |
| 2026-04-24 16:38 | -40.89109 | -70.77024 | 12165 ft | 322 kts | 191° |
| 2026-04-24 16:38 | -40.91332 | -70.77257 | 11726 ft | 319 kts | 191° |
| 2026-04-24 16:38 | -40.93468 | -70.77475 | 11293 ft | 298 kts | 191° |
| 2026-04-24 16:39 | -40.95525 | -70.77692 | 10895 ft | 296 kts | 191° |
| 2026-04-24 16:39 | -40.97566 | -70.77913 | 10484 ft | 293 kts | 192° |
| 2026-04-24 16:39 | -40.99530 | -70.78123 | 10403 ft | 276 kts | 192° |
| 2026-04-24 16:39 | -41.01360 | -70.78274 | 10223 ft | 255 kts | 191° |
| 2026-04-24 16:40 | -41.03082 | -70.78452 | 10121 ft | 244 kts | 193° |
| 2026-04-24 16:40 | -41.04762 | -70.78644 | 9873 ft | 244 kts | 193° |
| 2026-04-24 16:40 | -41.06472 | -70.78843 | 9565 ft | 250 kts | 193° |
| 2026-04-24 16:40 | -41.08221 | -70.79042 | 9255 ft | 254 kts | 192° |
| 2026-04-24 16:41 | -41.09973 | -70.79233 | 8949 ft | 251 kts | 192° |
| 2026-04-24 16:41 | -41.11715 | -70.79419 | 8638 ft | 251 kts | 192° |
| 2026-04-24 16:41 | -41.13455 | -70.79606 | 8297 ft | 252 kts | 191° |
| 2026-04-24 16:41 | -41.15190 | -70.79791 | 8111 ft | 246 kts | 191° |
| 2026-04-24 16:42 | -41.16862 | -70.79967 | 7976 ft | 238 kts | 191° |
| 2026-04-24 16:42 | -41.18461 | -70.80203 | 7840 ft | 220 kts | 201° |
| 2026-04-24 16:42 | -41.19716 | -70.81192 | 7610 ft | 210 kts | 229° |
| 2026-04-24 16:42 | -41.20707 | -70.82659 | 7599 ft | 216 kts | 233° |
| 2026-04-24 16:43 | -41.21654 | -70.84183 | 7479 ft | 212 kts | 233° |
| 2026-04-24 16:43 | -41.22570 | -70.85676 | 7288 ft | 206 kts | 233° |
| 2026-04-24 16:43 | -41.23451 | -70.87142 | 7069 ft | 201 kts | 234° |
| 2026-04-24 16:43 | -41.24135 | -70.88667 | 6853 ft | 187 kts | 260° |
| 2026-04-24 16:44 | -41.23913 | -70.90314 | 6688 ft | 184 kts | 292° |
| 2026-04-24 16:44 | -41.23369 | -70.91840 | 6455 ft | 181 kts | 289° |
| 2026-04-24 16:44 | -41.22886 | -70.93338 | 6248 ft | 177 kts | 290° |
| 2026-04-24 16:44 | -41.22390 | -70.94797 | 6019 ft | 165 kts | 290° |
| 2026-04-24 16:45 | -41.21928 | -70.96139 | 5792 ft | 156 kts | 290° |
| 2026-04-24 16:45 | -41.21491 | -70.97397 | 5621 ft | 147 kts | 291° |
| 2026-04-24 16:45 | -41.21064 | -70.98588 | 5440 ft | 139 kts | 291° |
| 2026-04-24 16:45 | -41.20681 | -70.99724 | 5230 ft | 131 kts | 290° |
| 2026-04-24 16:46 | -41.20303 | -71.00829 | 5064 ft | 132 kts | 291° |
| 2026-04-24 16:46 | -41.19921 | -71.01937 | 4910 ft | 132 kts | 291° |
| 2026-04-24 16:46 | -41.19539 | -71.03030 | 4686 ft | 128 kts | 292° |
| 2026-04-24 16:46 | -41.19169 | -71.04102 | 4521 ft | 128 kts | 293° |
| 2026-04-24 16:47 | -41.18802 | -71.05151 | 4319 ft | 123 kts | 294° |
| 2026-04-24 16:47 | -41.18438 | -71.06174 | 4202 ft | 126 kts | 294° |
| 2026-04-24 16:47 | -41.18071 | -71.07266 | 4012 ft | 130 kts | 293° |
| 2026-04-24 16:47 | -41.17709 | -71.08324 | 3830 ft | 122 kts | 295° |
| 2026-04-24 16:48 | -41.17357 | -71.09325 | 3665 ft | 119 kts | 294° |
| 2026-04-24 16:48 | -41.17003 | -71.10342 | 3506 ft | 123 kts | 295° |
| 2026-04-24 16:48 | -41.16648 | -71.11365 | 3332 ft | 121 kts | 296° |
| 2026-04-24 16:48 | -41.16290 | -71.12378 | 3176 ft | 122 kts | 295° |
| 2026-04-24 16:49 | -41.15940 | -71.13403 | 2984 ft | 121 kts | 292° |
| 2026-04-24 16:49 | -41.15598 | -71.14379 | 2794 ft | 112 kts | 295° |
| 2026-04-24 16:49 | -41.15305 | -71.15216 | 2756 ft | 87 kts | 295° |
| 2026-04-24 16:49 | -41.15114 | -71.15764 | 2760 ft | 43 kts | 295° |
| 2026-04-24 16:50 | -41.15049 | -71.15950 | 2757 ft | 30 kts | 295° |
| 2026-04-24 16:50 | -41.14938 | -71.16271 | 2758 ft | 20 kts | 295° |
| 2026-04-24 16:50 | -41.14891 | -71.16335 | 2758 ft | 9 kts | 349° |
| 2026-04-24 16:50 | -41.14827 | -71.16301 | 2761 ft | 11 kts | 25° |
| 2026-04-24 16:51 | -41.14764 | -71.16249 | 2758 ft | 10 kts | 50° |
| 2026-04-24 16:51 | -41.14735 | -71.16167 | 2758 ft | 8 kts | 66° |
| 2026-04-24 16:51 | -41.14726 | -71.16141 | 2756 ft | 3 kts | 67° |
| 2026-04-24 16:51 | -41.14717 | -71.16110 | 2758 ft | 2 kts | 68° |
| 2026-04-24 16:52 | -41.14716 | -71.16108 | 2758 ft | 0 kts | 68° |